Time;durP1;ratioP1;P1;durP2;ratioP2;P2;SDS_P1;SDS_P2;PMS_P1;PMS_P2;Temp;Humidity;BMP_temperature;BMP_pressure;BME280_temperature;BME280_humidity;BME280_pressure;Samples;Min_cycle;Max_cycle;Signal;HPM_P1;HPM_P2
2021/12/26 00:02:23;;;;;;;3.47;1.17;;;;;;;;;;5006719;28;20280;-84
2021/12/26 00:04:52;;;;;;;3.40;1.00;;;;;;;;;;5011566;28;20271;-84
2021/12/26 00:07:18;;;;;;;0.63;0.60;;;;;;;;;;5011609;28;20551;-84
2021/12/26 00:09:43;;;;;;;3.30;1.10;;;;;;;;;;5015563;28;20204;-84
2021/12/26 00:12:09;;;;;;;2.70;0.77;;;;;;;;;;5014329;28;20696;-84
2021/12/26 00:14:34;;;;;;;1.43;0.70;;;;;;;;;;5008918;28;20189;-84
2021/12/26 00:17:00;;;;;;;2.40;1.03;;;;;;;;;;5023463;28;20218;-84
2021/12/26 00:19:26;;;;;;;3.50;0.67;;;;;;;;;;5015229;28;20178;-83
2021/12/26 00:21:51;;;;;;;1.60;0.53;;;;;;;;;;5015806;28;20293;-85
2021/12/26 00:24:17;;;;;;;3.97;1.10;;;;;;;;;;5014743;28;20194;-84
2021/12/26 00:26:42;;;;;;;5.27;1.03;;;;;;;;;;5016982;28;20273;-85
2021/12/26 00:29:07;;;;;;;2.00;0.90;;;;;;;;;;5012197;28;20178;-84
2021/12/26 00:31:33;;;;;;;1.20;0.67;;;;;;;;;;5011852;28;20179;-85
2021/12/26 00:33:58;;;;;;;2.83;0.70;;;;;;;;;;5010865;28;20182;-84
2021/12/26 00:36:24;;;;;;;1.37;0.63;;;;;;;;;;5016534;28;20182;-84
2021/12/26 00:38:50;;;;;;;0.93;0.70;;;;;;;;;;5011812;28;20758;-84
2021/12/26 00:41:17;;;;;;;1.60;0.80;;;;;;;;;;5038384;28;20316;-84
2021/12/26 00:43:45;;;;;;;2.53;0.90;;;;;;;;;;5013393;28;20249;-84
2021/12/26 00:46:11;;;;;;;3.10;1.20;;;;;;;;;;5020720;28;20613;-84
2021/12/26 00:48:36;;;;;;;1.73;1.00;;;;;;;;;;5012927;28;20276;-84
2021/12/26 00:51:02;;;;;;;2.30;0.90;;;;;;;;;;5014722;28;20232;-84
2021/12/26 00:53:28;;;;;;;0.67;0.60;;;;;;;;;;5011753;28;20193;-84
2021/12/26 00:55:54;;;;;;;4.67;0.90;;;;;;;;;;5033174;28;20208;-84
2021/12/26 00:58:20;;;;;;;1.57;0.83;;;;;;;;;;5032749;28;20214;-84
2021/12/26 01:00:49;;;;;;;4.30;1.30;;;;;;;;;;5018425;28;20185;-84
2021/12/26 01:03:16;;;;;;;1.80;1.00;;;;;;;;;;5016138;28;20288;-84
2021/12/26 01:05:44;;;;;;;2.37;1.13;;;;;;;;;;5006762;28;20190;-84
2021/12/26 01:08:14;;;;;;;2.80;0.70;;;;;;;;;;5019280;28;20185;-84
2021/12/26 01:10:41;;;;;;;4.70;1.10;;;;;;;;;;5014237;28;20421;-84
2021/12/26 01:13:17;;;;;;;3.37;0.93;;;;;;;;;;5013989;28;20182;-84
2021/12/26 01:15:45;;;;;;;1.77;1.03;;;;;;;;;;5009967;28;20205;-84
2021/12/26 01:18:11;;;;;;;3.90;1.33;;;;;;;;;;5023036;28;20186;-84
2021/12/26 01:20:50;;;;;;;2.37;1.03;;;;;;;;;;5027198;28;20216;-84
2021/12/26 01:23:18;;;;;;;3.80;1.47;;;;;;;;;;5025596;28;20301;-84
2021/12/26 01:25:44;;;;;;;3.27;1.10;;;;;;;;;;5008673;28;20232;-84
2021/12/26 01:28:10;;;;;;;2.17;1.10;;;;;;;;;;5015558;28;20202;-84
2021/12/26 01:30:39;;;;;;;1.70;0.90;;;;;;;;;;5029360;28;20181;-84
2021/12/26 01:33:07;;;;;;;4.00;1.37;;;;;;;;;;5014400;28;20187;-84
2021/12/26 01:35:33;;;;;;;3.07;1.20;;;;;;;;;;4994378;28;20190;-84
2021/12/26 01:37:58;;;;;;;2.50;0.80;;;;;;;;;;5013301;28;20196;-84
2021/12/26 01:40:24;;;;;;;2.00;1.00;;;;;;;;;;5007659;28;20629;-84
2021/12/26 01:42:51;;;;;;;2.70;1.17;;;;;;;;;;5009635;28;20475;-84
2021/12/26 01:45:17;;;;;;;4.20;1.13;;;;;;;;;;4995959;28;20202;-84
2021/12/26 01:47:45;;;;;;;3.57;1.13;;;;;;;;;;5009353;28;20186;-84
2021/12/26 01:50:11;;;;;;;1.97;1.30;;;;;;;;;;5013275;28;20320;-84
2021/12/26 01:52:36;;;;;;;5.43;1.53;;;;;;;;;;5027498;28;20222;-84
2021/12/26 01:55:21;;;;;;;3.00;1.47;;;;;;;;;;5012083;28;20181;-84
2021/12/26 01:57:49;;;;;;;5.10;1.43;;;;;;;;;;5008539;28;20213;-84
2021/12/26 02:00:15;;;;;;;2.27;1.40;;;;;;;;;;5013109;28;20170;-83
2021/12/26 02:02:41;;;;;;;3.17;1.53;;;;;;;;;;4997103;28;20226;-84
2021/12/26 02:05:07;;;;;;;2.10;1.10;;;;;;;;;;5002392;28;20207;-84
2021/12/26 02:07:32;;;;;;;3.13;1.47;;;;;;;;;;5003950;28;20241;-85
2021/12/26 02:09:57;;;;;;;5.47;1.40;;;;;;;;;;5011252;28;20274;-84
2021/12/26 02:12:23;;;;;;;5.03;1.30;;;;;;;;;;5007926;28;20225;-84
2021/12/26 02:14:48;;;;;;;3.33;1.43;;;;;;;;;;5010741;28;20568;-84
2021/12/26 02:17:17;;;;;;;1.87;1.00;;;;;;;;;;5007702;28;20266;-85
2021/12/26 02:19:43;;;;;;;4.63;1.50;;;;;;;;;;5008535;28;20175;-84
2021/12/26 02:22:17;;;;;;;5.23;1.57;;;;;;;;;;5011031;28;20673;-84
2021/12/26 02:25:09;;;;;;;4.97;1.47;;;;;;;;;;5008646;28;20260;-84
2021/12/26 02:27:32;;;;;;;3.57;1.50;;;;;;;;;;5014642;28;20190;-84
2021/12/26 02:30:06;;;;;;;4.87;1.70;;;;;;;;;;5007342;28;20198;-85
2021/12/26 02:32:31;;;;;;;3.63;1.50;;;;;;;;;;5009472;28;20676;-85
2021/12/26 02:34:59;;;;;;;3.00;1.60;;;;;;;;;;5001006;28;20179;-85
2021/12/26 02:37:24;;;;;;;2.20;1.13;;;;;;;;;;5014359;28;20184;-83
2021/12/26 02:39:50;;;;;;;6.77;1.73;;;;;;;;;;5004094;28;20203;-83
2021/12/26 02:42:20;;;;;;;4.20;1.93;;;;;;;;;;5008352;28;20174;-84
2021/12/26 02:44:46;;;;;;;3.10;1.37;;;;;;;;;;5007390;28;20214;-84
2021/12/26 02:47:14;;;;;;;3.43;1.43;;;;;;;;;;5006924;28;20175;-84
2021/12/26 02:49:40;;;;;;;3.33;1.70;;;;;;;;;;5001750;28;20195;-84
2021/12/26 02:52:05;;;;;;;1.93;1.07;;;;;;;;;;5009363;28;20185;-84
2021/12/26 02:54:31;;;;;;;5.13;1.70;;;;;;;;;;5006782;28;20175;-84
2021/12/26 02:56:56;;;;;;;3.80;1.40;;;;;;;;;;5010473;28;20306;-84
2021/12/26 02:59:21;;;;;;;3.80;1.30;;;;;;;;;;5011065;28;20633;-84
2021/12/26 03:01:47;;;;;;;2.30;1.40;;;;;;;;;;5013831;28;20284;-84
2021/12/26 03:04:13;;;;;;;2.90;1.30;;;;;;;;;;5007384;28;20619;-84
2021/12/26 03:07:02;;;;;;;2.37;1.70;;;;;;;;;;5006204;28;20277;-84
2021/12/26 03:09:26;;;;;;;2.53;1.30;;;;;;;;;;5010910;28;20179;-84
2021/12/26 03:11:52;;;;;;;4.80;1.90;;;;;;;;;;5014629;28;20221;-84
2021/12/26 03:14:18;;;;;;;3.20;1.43;;;;;;;;;;5009495;28;20681;-84
2021/12/26 03:16:52;;;;;;;6.17;2.17;;;;;;;;;;5027998;28;20209;-84
2021/12/26 03:19:17;;;;;;;4.03;1.33;;;;;;;;;;5012643;28;20190;-84
2021/12/26 03:21:43;;;;;;;3.33;1.87;;;;;;;;;;5010246;28;20191;-84
2021/12/26 03:24:08;;;;;;;3.07;1.30;;;;;;;;;;5014952;28;20199;-84
2021/12/26 03:26:34;;;;;;;3.20;1.67;;;;;;;;;;5007064;28;20194;-84
2021/12/26 03:28:59;;;;;;;4.77;1.43;;;;;;;;;;5015010;28;20321;-84
2021/12/26 03:31:25;;;;;;;3.10;1.47;;;;;;;;;;5007304;28;20187;-84
2021/12/26 03:33:53;;;;;;;2.77;1.63;;;;;;;;;;5012221;28;20194;-84
2021/12/26 03:36:18;;;;;;;6.17;1.50;;;;;;;;;;5010441;28;20187;-85
2021/12/26 03:38:44;;;;;;;4.47;1.63;;;;;;;;;;5016703;28;20183;-84
2021/12/26 03:41:09;;;;;;;3.13;1.67;;;;;;;;;;5006104;28;20274;-84
2021/12/26 03:43:35;;;;;;;3.47;1.70;;;;;;;;;;5011171;28;20297;-84
2021/12/26 03:46:00;;;;;;;2.90;1.70;;;;;;;;;;5015233;28;20265;-85
2021/12/26 03:48:26;;;;;;;4.20;1.57;;;;;;;;;;5010196;28;20249;-85
2021/12/26 03:50:54;;;;;;;5.13;2.13;;;;;;;;;;5008548;28;20189;-85
2021/12/26 03:53:20;;;;;;;9.27;1.63;;;;;;;;;;5011259;28;20179;-83
2021/12/26 03:55:47;;;;;;;5.43;2.10;;;;;;;;;;5011595;28;20193;-84
2021/12/26 03:58:12;;;;;;;2.97;1.70;;;;;;;;;;5012827;28;20859;-85
2021/12/26 04:00:38;;;;;;;2.47;1.50;;;;;;;;;;5009108;28;20194;-84
2021/12/26 04:03:04;;;;;;;3.80;1.80;;;;;;;;;;5011967;28;20567;-84
2021/12/26 04:05:29;;;;;;;4.23;1.57;;;;;;;;;;5014251;28;20192;-84
2021/12/26 04:07:55;;;;;;;4.43;1.67;;;;;;;;;;5029473;28;20205;-85
2021/12/26 04:10:23;;;;;;;3.13;1.43;;;;;;;;;;5014673;28;20280;-84
2021/12/26 04:12:51;;;;;;;2.80;1.43;;;;;;;;;;5017643;28;20206;-85
2021/12/26 04:15:22;;;;;;;2.73;1.40;;;;;;;;;;5011891;28;20194;-85
2021/12/26 04:17:49;;;;;;;4.33;1.43;;;;;;;;;;5033029;28;20663;-84
2021/12/26 04:20:15;;;;;;;3.83;1.50;;;;;;;;;;5008263;28;20193;-85
2021/12/26 04:22:41;;;;;;;5.10;2.00;;;;;;;;;;5032272;28;20182;-85
2021/12/26 04:25:07;;;;;;;4.00;1.80;;;;;;;;;;5030331;28;20263;-84
2021/12/26 04:27:33;;;;;;;5.20;1.83;;;;;;;;;;5030630;28;20253;-85
2021/12/26 04:29:58;;;;;;;4.17;1.90;;;;;;;;;;5012290;28;20272;-85
2021/12/26 04:32:24;;;;;;;3.63;1.20;;;;;;;;;;5032912;28;20213;-85
2021/12/26 04:34:49;;;;;;;4.13;2.00;;;;;;;;;;5010568;28;20652;-83
2021/12/26 04:37:15;;;;;;;4.00;1.80;;;;;;;;;;5015771;28;20182;-84
2021/12/26 04:39:40;;;;;;;3.27;1.50;;;;;;;;;;5013944;28;20229;-84
2021/12/26 04:42:07;;;;;;;3.53;1.73;;;;;;;;;;5013742;28;20269;-84
2021/12/26 04:44:32;;;;;;;5.80;1.30;;;;;;;;;;5017746;28;20628;-84
2021/12/26 04:46:58;;;;;;;3.63;1.73;;;;;;;;;;5011605;28;20216;-83
2021/12/26 04:49:23;;;;;;;3.00;1.70;;;;;;;;;;5018230;28;20178;-84
2021/12/26 04:51:49;;;;;;;4.80;1.93;;;;;;;;;;5005663;28;20185;-83
2021/12/26 04:54:15;;;;;;;2.80;1.30;;;;;;;;;;5016894;28;20228;-84
2021/12/26 04:56:41;;;;;;;2.27;1.57;;;;;;;;;;5012419;28;20189;-84
2021/12/26 04:59:06;;;;;;;5.97;1.50;;;;;;;;;;5022058;28;20739;-85
2021/12/26 05:01:32;;;;;;;3.63;2.13;;;;;;;;;;5012406;28;20252;-85
2021/12/26 05:03:57;;;;;;;3.50;1.37;;;;;;;;;;5033378;28;20229;-84
2021/12/26 05:06:25;;;;;;;4.60;1.60;;;;;;;;;;5011366;28;20261;-84
2021/12/26 05:08:51;;;;;;;1.80;1.30;;;;;;;;;;5016569;28;20280;-85
2021/12/26 05:11:16;;;;;;;3.63;1.60;;;;;;;;;;5008741;28;20257;-85
2021/12/26 05:13:41;;;;;;;3.07;1.70;;;;;;;;;;5013063;28;20182;-85
2021/12/26 05:16:07;;;;;;;2.97;1.50;;;;;;;;;;5015204;28;20209;-84
2021/12/26 05:18:32;;;;;;;4.07;1.80;;;;;;;;;;5011107;28;20253;-85
2021/12/26 05:20:58;;;;;;;2.03;1.13;;;;;;;;;;5013184;28;20178;-85
2021/12/26 05:23:24;;;;;;;3.97;1.47;;;;;;;;;;5011498;28;20292;-85
2021/12/26 05:25:49;;;;;;;2.53;1.33;;;;;;;;;;5016369;28;20190;-84
2021/12/26 05:28:14;;;;;;;3.83;2.10;;;;;;;;;;5032799;28;20193;-85
2021/12/26 05:30:40;;;;;;;2.73;1.67;;;;;;;;;;5014889;28;20897;-85
2021/12/26 05:33:06;;;;;;;2.97;1.60;;;;;;;;;;5010858;28;20720;-85
2021/12/26 05:35:31;;;;;;;4.00;1.40;;;;;;;;;;5014908;28;20217;-85
2021/12/26 05:37:58;;;;;;;3.63;1.53;;;;;;;;;;5027119;28;20218;-85
2021/12/26 05:40:23;;;;;;;3.97;1.70;;;;;;;;;;5012586;28;20189;-85
2021/12/26 05:42:48;;;;;;;2.13;1.67;;;;;;;;;;5003236;28;20190;-85
2021/12/26 05:45:15;;;;;;;4.27;1.63;;;;;;;;;;5030172;28;20704;-85
2021/12/26 05:47:40;;;;;;;4.97;1.90;;;;;;;;;;5014176;28;20236;-85
2021/12/26 05:50:06;;;;;;;4.03;1.83;;;;;;;;;;5010204;28;20705;-85
2021/12/26 05:52:32;;;;;;;4.30;1.53;;;;;;;;;;5002329;28;20282;-85
2021/12/26 05:54:58;;;;;;;3.70;1.70;;;;;;;;;;5018040;28;20747;-84
2021/12/26 05:57:23;;;;;;;5.10;1.47;;;;;;;;;;5009017;28;20185;-84
2021/12/26 05:59:49;;;;;;;3.60;1.67;;;;;;;;;;5027926;28;20562;-84
2021/12/26 06:02:15;;;;;;;3.07;1.50;;;;;;;;;;5009885;28;20234;-83
2021/12/26 06:04:41;;;;;;;2.60;1.30;;;;;;;;;;5008231;28;20211;-83
2021/12/26 06:07:06;;;;;;;2.97;1.37;;;;;;;;;;5000851;28;20178;-83
2021/12/26 06:09:32;;;;;;;1.63;1.10;;;;;;;;;;5012467;28;20214;-84
2021/12/26 06:11:57;;;;;;;3.60;1.50;;;;;;;;;;5008818;28;20191;-84
2021/12/26 06:14:23;;;;;;;3.77;1.30;;;;;;;;;;5009982;28;20191;-85
2021/12/26 06:16:49;;;;;;;3.67;1.87;;;;;;;;;;5008126;28;20602;-84
2021/12/26 06:19:14;;;;;;;5.83;1.63;;;;;;;;;;5012225;28;20178;-85
2021/12/26 06:21:39;;;;;;;3.20;1.47;;;;;;;;;;5008818;28;20190;-84
2021/12/26 06:24:05;;;;;;;2.37;1.50;;;;;;;;;;5011856;28;20723;-84
2021/12/26 06:26:32;;;;;;;3.00;1.50;;;;;;;;;;5005007;28;20664;-85
2021/12/26 06:28:57;;;;;;;4.07;1.60;;;;;;;;;;5006228;28;20187;-84
2021/12/26 06:31:23;;;;;;;2.97;1.60;;;;;;;;;;5001330;28;20183;-84
2021/12/26 06:33:49;;;;;;;2.87;1.63;;;;;;;;;;5005878;28;20257;-84
2021/12/26 06:36:15;;;;;;;3.23;1.73;;;;;;;;;;5000992;28;20186;-85
2021/12/26 06:38:42;;;;;;;2.70;1.57;;;;;;;;;;5009605;28;20194;-84
2021/12/26 06:41:08;;;;;;;5.03;1.73;;;;;;;;;;5006717;28;20183;-84
2021/12/26 06:43:35;;;;;;;3.73;1.30;;;;;;;;;;5010245;28;20199;-85
2021/12/26 06:46:01;;;;;;;6.47;2.03;;;;;;;;;;5005303;28;20222;-85
2021/12/26 06:48:27;;;;;;;2.77;1.33;;;;;;;;;;5007830;28;20202;-85
2021/12/26 06:50:53;;;;;;;4.27;1.80;;;;;;;;;;5014009;28;20190;-84
2021/12/26 06:53:19;;;;;;;4.83;1.87;;;;;;;;;;5007445;28;20653;-84
2021/12/26 06:55:45;;;;;;;4.60;1.70;;;;;;;;;;5018110;28;20183;-84
2021/12/26 06:58:11;;;;;;;2.70;1.70;;;;;;;;;;5009961;28;20332;-83
2021/12/26 07:00:37;;;;;;;5.17;1.77;;;;;;;;;;5016298;28;20178;-86
2021/12/26 07:03:03;;;;;;;2.43;1.37;;;;;;;;;;5010529;28;20640;-84
2021/12/26 07:05:29;;;;;;;5.17;1.73;;;;;;;;;;5013949;28;20194;-85
2021/12/26 07:07:55;;;;;;;4.73;1.57;;;;;;;;;;5010974;28;20193;-84
2021/12/26 07:10:23;;;;;;;3.23;1.40;;;;;;;;;;5017521;28;20193;-84
2021/12/26 07:12:49;;;;;;;2.80;1.50;;;;;;;;;;5012366;28;20190;-84
2021/12/26 07:15:15;;;;;;;4.33;1.40;;;;;;;;;;5018226;28;20545;-84
2021/12/26 07:17:41;;;;;;;3.07;1.47;;;;;;;;;;5009053;28;20218;-84
2021/12/26 07:20:09;;;;;;;6.27;1.33;;;;;;;;;;5033363;28;20658;-84
2021/12/26 07:22:35;;;;;;;5.90;1.87;;;;;;;;;;5014105;28;20208;-84
2021/12/26 07:25:01;;;;;;;2.13;1.30;;;;;;;;;;5011707;28;20673;-84
2021/12/26 07:27:26;;;;;;;4.97;2.10;;;;;;;;;;5012624;28;20264;-84
2021/12/26 07:29:51;;;;;;;1.97;1.40;;;;;;;;;;5031088;28;20277;-84
2021/12/26 07:32:17;;;;;;;2.23;1.33;;;;;;;;;;5041391;28;20208;-85
2021/12/26 07:34:43;;;;;;;2.37;1.70;;;;;;;;;;5014214;28;20228;-84
2021/12/26 07:37:09;;;;;;;3.20;1.70;;;;;;;;;;5015928;28;20714;-84
2021/12/26 07:39:35;;;;;;;3.70;1.20;;;;;;;;;;5012936;28;20232;-84
2021/12/26 07:42:04;;;;;;;4.57;1.60;;;;;;;;;;5015881;28;20190;-84
2021/12/26 07:44:30;;;;;;;2.80;1.13;;;;;;;;;;5011798;28;20209;-84
2021/12/26 07:46:55;;;;;;;3.20;1.43;;;;;;;;;;5013333;28;20700;-84
2021/12/26 07:49:22;;;;;;;3.57;1.57;;;;;;;;;;5009856;28;20772;-84
2021/12/26 07:51:49;;;;;;;2.03;1.17;;;;;;;;;;4996802;28;20186;-85
2021/12/26 07:54:16;;;;;;;1.17;1.00;;;;;;;;;;5032237;28;20633;-84
2021/12/26 07:56:42;;;;;;;4.47;1.40;;;;;;;;;;5012576;28;20272;-84
2021/12/26 07:59:07;;;;;;;7.00;1.70;;;;;;;;;;5014555;28;20297;-84
2021/12/26 08:01:35;;;;;;;2.07;1.23;;;;;;;;;;5012248;28;20217;-85
2021/12/26 08:04:05;;;;;;;5.40;1.67;;;;;;;;;;5010875;28;20595;-85
2021/12/26 08:06:31;;;;;;;5.33;1.50;;;;;;;;;;5011666;28;20208;-84
2021/12/26 08:09:03;;;;;;;5.87;1.80;;;;;;;;;;5014786;28;20182;-84
2021/12/26 08:11:28;;;;;;;5.40;1.40;;;;;;;;;;5012307;28;20288;-84
2021/12/26 08:13:54;;;;;;;2.60;1.50;;;;;;;;;;5006614;28;20187;-84
2021/12/26 08:16:19;;;;;;;4.17;1.70;;;;;;;;;;5035445;28;20190;-85
2021/12/26 08:18:45;;;;;;;3.93;1.63;;;;;;;;;;4999587;28;20185;-85
2021/12/26 08:21:10;;;;;;;3.00;1.17;;;;;;;;;;5010253;28;20380;-85
2021/12/26 08:23:36;;;;;;;3.33;1.70;;;;;;;;;;5012416;28;20662;-85
2021/12/26 08:26:03;;;;;;;6.40;1.80;;;;;;;;;;5014441;28;20221;-84
2021/12/26 08:28:28;;;;;;;3.70;1.70;;;;;;;;;;5014841;28;20200;-85
2021/12/26 08:30:54;;;;;;;2.07;1.10;;;;;;;;;;5020434;28;20173;-85
2021/12/26 08:33:19;;;;;;;4.87;1.93;;;;;;;;;;5007069;28;21046;-85
2021/12/26 08:35:48;;;;;;;3.37;1.43;;;;;;;;;;5012172;28;20181;-85
2021/12/26 08:38:15;;;;;;;3.30;1.03;;;;;;;;;;5011023;28;20189;-85
2021/12/26 08:40:41;;;;;;;4.50;2.00;;;;;;;;;;5014218;28;20189;-85
2021/12/26 08:43:07;;;;;;;3.50;1.60;;;;;;;;;;5010505;28;20186;-84
2021/12/26 08:45:33;;;;;;;2.93;1.57;;;;;;;;;;5032070;28;20206;-84
2021/12/26 08:48:00;;;;;;;6.27;1.70;;;;;;;;;;5010253;28;20239;-85
2021/12/26 08:50:25;;;;;;;3.93;1.87;;;;;;;;;;5015531;28;20269;-84
2021/12/26 08:52:52;;;;;;;4.37;1.53;;;;;;;;;;5027248;28;20629;-85
2021/12/26 08:55:19;;;;;;;2.53;1.30;;;;;;;;;;5010800;28;20323;-84
2021/12/26 08:57:45;;;;;;;3.77;1.40;;;;;;;;;;4994829;28;20221;-85
2021/12/26 09:00:12;;;;;;;5.50;2.30;;;;;;;;;;5032753;28;20201;-84
2021/12/26 09:02:38;;;;;;;4.43;1.90;;;;;;;;;;5011881;28;20862;-84
2021/12/26 09:05:04;;;;;;;2.30;1.27;;;;;;;;;;5009401;28;20293;-85
2021/12/26 09:07:30;;;;;;;3.83;1.83;;;;;;;;;;4991566;28;20199;-87
2021/12/26 09:09:56;;;;;;;4.87;1.83;;;;;;;;;;5011952;28;20718;-84
2021/12/26 09:12:22;;;;;;;2.90;1.73;;;;;;;;;;5011221;28;20273;-85
2021/12/26 09:14:48;;;;;;;3.20;1.87;;;;;;;;;;5010825;28;20211;-86
2021/12/26 09:17:13;;;;;;;4.73;1.70;;;;;;;;;;5011062;28;20237;-85
2021/12/26 09:19:40;;;;;;;4.07;1.80;;;;;;;;;;4996549;28;20305;-86
2021/12/26 09:22:08;;;;;;;2.83;1.50;;;;;;;;;;4995480;28;20220;-85
2021/12/26 09:24:38;;;;;;;4.10;1.63;;;;;;;;;;5013466;28;20245;-87
2021/12/26 09:27:05;;;;;;;4.13;2.00;;;;;;;;;;5014486;28;20636;-85
2021/12/26 09:29:31;;;;;;;4.07;2.10;;;;;;;;;;4991511;28;20815;-85
2021/12/26 09:31:56;;;;;;;3.23;1.70;;;;;;;;;;5013331;28;20187;-86
2021/12/26 09:34:23;;;;;;;4.70;2.00;;;;;;;;;;5013355;28;20198;-86
2021/12/26 09:36:51;;;;;;;3.43;1.80;;;;;;;;;;5005417;28;20263;-85
2021/12/26 09:39:18;;;;;;;5.27;1.63;;;;;;;;;;5008540;28;20642;-85
2021/12/26 09:41:43;;;;;;;3.70;1.97;;;;;;;;;;5001602;28;20657;-85
2021/12/26 09:44:09;;;;;;;5.37;2.37;;;;;;;;;;5009950;28;20229;-85
2021/12/26 09:46:36;;;;;;;6.57;2.43;;;;;;;;;;5003189;28;20635;-85
2021/12/26 09:49:03;;;;;;;5.13;2.60;;;;;;;;;;5011221;28;20626;-86
2021/12/26 09:51:28;;;;;;;5.57;2.27;;;;;;;;;;5006586;28;20217;-86
2021/12/26 09:53:54;;;;;;;4.77;2.23;;;;;;;;;;5012784;28;20580;-86
2021/12/26 09:56:19;;;;;;;6.27;2.50;;;;;;;;;;5003332;28;20205;-85
2021/12/26 09:59:00;;;;;;;4.83;2.10;;;;;;;;;;5007934;28;20667;-86
2021/12/26 10:02:09;;;;;;;6.00;2.83;;;;;;;;;;5002137;28;20599;-86
2021/12/26 10:04:35;;;;;;;7.30;2.40;;;;;;;;;;4913574;29;20209;-85
2021/12/26 10:07:06;;;;;;;3.03;1.73;;;;;;;;;;4925887;29;20204;-86
2021/12/26 10:09:36;;;;;;;3.53;2.10;;;;;;;;;;4967127;28;20245;-86
2021/12/26 10:12:03;;;;;;;7.53;2.33;;;;;;;;;;5008440;28;20183;-85
2021/12/26 10:14:33;;;;;;;6.73;2.90;;;;;;;;;;5003455;28;20222;-85
2021/12/26 10:17:26;;;;;;;5.20;2.77;;;;;;;;;;5006549;28;24316;-85
2021/12/26 10:19:59;;;;;;;5.40;3.00;;;;;;;;;;5004812;28;20209;-84
2021/12/26 10:22:29;;;;;;;7.43;2.57;;;;;;;;;;5009572;28;20201;-86
2021/12/26 10:24:55;;;;;;;7.47;3.27;;;;;;;;;;5011597;28;20198;-85
2021/12/26 10:27:23;;;;;;;8.00;2.60;;;;;;;;;;5009505;28;20523;-85
2021/12/26 10:29:54;;;;;;;5.37;2.83;;;;;;;;;;5014850;28;20197;-85
2021/12/26 10:32:36;;;;;;;6.87;2.97;;;;;;;;;;5010501;28;20174;-85
2021/12/26 10:35:11;;;;;;;4.80;2.63;;;;;;;;;;5003256;28;20186;-87
2021/12/26 10:37:53;;;;;;;5.77;2.80;;;;;;;;;;5007346;28;20203;-85
2021/12/26 10:40:22;;;;;;;5.17;3.00;;;;;;;;;;5008317;28;20202;-85
2021/12/26 10:42:52;;;;;;;4.00;2.57;;;;;;;;;;5009405;28;20193;-86
2021/12/26 10:45:20;;;;;;;6.93;3.00;;;;;;;;;;4987787;28;20882;-85
2021/12/26 10:47:53;;;;;;;5.53;2.43;;;;;;;;;;5006987;28;20179;-86
2021/12/26 10:50:21;;;;;;;5.53;3.03;;;;;;;;;;5000791;28;20187;-86
2021/12/26 10:53:07;;;;;;;8.10;3.53;;;;;;;;;;5008687;28;20257;-86
2021/12/26 10:55:51;;;;;;;6.40;2.90;;;;;;;;;;5005797;28;20237;-85
2021/12/26 10:58:19;;;;;;;6.43;3.10;;;;;;;;;;4987490;28;20221;-87
2021/12/26 11:00:47;;;;;;;4.73;2.87;;;;;;;;;;5005788;28;20187;-86
2021/12/26 11:03:22;;;;;;;6.27;3.17;;;;;;;;;;5013244;28;20183;-86
2021/12/26 11:05:54;;;;;;;6.00;3.37;;;;;;;;;;5010801;28;20247;-86
2021/12/26 11:08:30;;;;;;;7.20;3.13;;;;;;;;;;5014726;28;20785;-86
2021/12/26 11:10:57;;;;;;;9.30;3.00;;;;;;;;;;5012043;28;20713;-86
2021/12/26 11:13:23;;;;;;;12.57;3.43;;;;;;;;;;5013053;28;20300;-85
2021/12/26 11:15:54;;;;;;;6.77;3.70;;;;;;;;;;5007654;28;20218;-87
2021/12/26 11:18:19;;;;;;;5.93;2.90;;;;;;;;;;4999589;28;20193;-86
2021/12/26 11:20:48;;;;;;;5.93;3.53;;;;;;;;;;5005346;28;20278;-87
2021/12/26 11:23:20;;;;;;;8.23;3.03;;;;;;;;;;5010072;28;20186;-85
2021/12/26 11:25:49;;;;;;;9.07;3.30;;;;;;;;;;5008289;28;20222;-86
2021/12/26 11:28:22;;;;;;;7.03;3.57;;;;;;;;;;5012274;28;20189;-85
2021/12/26 11:30:48;;;;;;;9.93;3.93;;;;;;;;;;5006368;28;20183;-85
2021/12/26 11:33:14;;;;;;;7.40;3.63;;;;;;;;;;5012625;28;20189;-85
2021/12/26 11:35:42;;;;;;;5.80;3.20;;;;;;;;;;5016272;28;20251;-85
2021/12/26 11:38:12;;;;;;;9.20;4.03;;;;;;;;;;5015191;28;20186;-86
2021/12/26 11:40:41;;;;;;;9.23;3.33;;;;;;;;;;5033846;28;20542;-86
2021/12/26 11:43:20;;;;;;;7.33;3.60;;;;;;;;;;5014276;28;20633;-85
2021/12/26 11:45:59;;;;;;;6.30;3.70;;;;;;;;;;5025587;28;20204;-86
2021/12/26 11:49:00;;;;;;;7.13;3.63;;;;;;;;;;5025765;28;20837;-86
2021/12/26 11:51:51;;;;;;;7.77;3.67;;;;;;;;;;5009573;28;20645;-86
2021/12/26 11:54:32;;;;;;;9.73;4.10;;;;;;;;;;5022625;28;20708;-86
2021/12/26 11:57:18;;;;;;;7.40;3.70;;;;;;;;;;5012976;28;20197;-85
2021/12/26 12:00:10;;;;;;;9.20;4.00;;;;;;;;;;5013387;28;20301;-85
2021/12/26 12:02:43;;;;;;;7.87;4.20;;;;;;;;;;5010373;28;20273;-85
2021/12/26 12:05:18;;;;;;;7.47;3.83;;;;;;;;;;5003632;28;20214;-85
2021/12/26 12:08:02;;;;;;;9.13;4.30;;;;;;;;;;5009701;28;20236;-85
2021/12/26 12:10:40;;;;;;;9.47;3.97;;;;;;;;;;5014484;28;20190;-85
2021/12/26 12:13:07;;;;;;;8.37;4.20;;;;;;;;;;5022915;28;20675;-85
2021/12/26 12:15:55;;;;;;;7.37;4.17;;;;;;;;;;5006193;28;20182;-86
2021/12/26 12:18:24;;;;;;;7.60;4.20;;;;;;;;;;5013214;28;20416;-85
2021/12/26 12:21:10;;;;;;;6.53;4.00;;;;;;;;;;5017146;28;20276;-85
2021/12/26 12:23:55;;;;;;;7.60;3.77;;;;;;;;;;5012670;28;20790;-85
2021/12/26 12:26:50;;;;;;;6.03;4.07;;;;;;;;;;5016463;28;20189;-85
2021/12/26 12:29:28;;;;;;;6.53;3.60;;;;;;;;;;5016648;28;20225;-85
2021/12/26 12:32:25;;;;;;;6.27;3.40;;;;;;;;;;5016672;28;20194;-85
2021/12/26 12:35:05;;;;;;;9.90;4.10;;;;;;;;;;5027043;28;20232;-84
2021/12/26 12:37:47;;;;;;;7.70;4.07;;;;;;;;;;5037730;28;20188;-85
2021/12/26 12:40:15;;;;;;;6.90;3.80;;;;;;;;;;5014194;28;20194;-86
2021/12/26 12:42:44;;;;;;;9.80;3.93;;;;;;;;;;5017076;28;20233;-85
2021/12/26 12:45:10;;;;;;;7.40;4.10;;;;;;;;;;5012084;28;20284;-85
2021/12/26 12:47:35;;;;;;;8.63;4.20;;;;;;;;;;5021804;28;20655;-85
2021/12/26 12:50:03;;;;;;;6.83;3.80;;;;;;;;;;5011745;28;20193;-85
2021/12/26 12:52:38;;;;;;;7.10;4.03;;;;;;;;;;5035532;28;20190;-85
2021/12/26 12:55:50;;;;;;;9.40;4.20;;;;;;;;;;5030850;28;20198;-85
2021/12/26 12:58:32;;;;;;;9.50;4.60;;;;;;;;;;5021392;28;20240;-85
2021/12/26 13:01:02;;;;;;;8.33;4.23;;;;;;;;;;5029187;28;20244;-85
2021/12/26 13:03:31;;;;;;;7.73;4.30;;;;;;;;;;5031868;28;20633;-86
2021/12/26 13:06:06;;;;;;;8.37;4.07;;;;;;;;;;5011921;28;20221;-85
2021/12/26 13:08:33;;;;;;;8.53;4.50;;;;;;;;;;5013853;28;20193;-85
2021/12/26 13:10:59;;;;;;;8.47;4.10;;;;;;;;;;5018261;28;20315;-86
2021/12/26 13:13:25;;;;;;;9.23;4.20;;;;;;;;;;5009965;28;20182;-85
2021/12/26 13:15:57;;;;;;;5.90;3.40;;;;;;;;;;5014275;28;20178;-85
2021/12/26 13:18:25;;;;;;;6.10;3.97;;;;;;;;;;5024030;28;20770;-86
2021/12/26 13:20:56;;;;;;;7.30;4.63;;;;;;;;;;5014318;28;20186;-86
2021/12/26 13:23:22;;;;;;;7.87;4.10;;;;;;;;;;5011844;28;20198;-85
2021/12/26 13:25:49;;;;;;;6.73;4.33;;;;;;;;;;5016467;28;20194;-85
2021/12/26 13:28:14;;;;;;;7.47;3.57;;;;;;;;;;5009653;28;20182;-85
2021/12/26 13:30:45;;;;;;;8.47;4.20;;;;;;;;;;5020146;28;20347;-85
2021/12/26 13:33:44;;;;;;;8.83;4.80;;;;;;;;;;5003780;28;20182;-85
2021/12/26 13:36:24;;;;;;;7.00;4.30;;;;;;;;;;4979642;28;20195;-85
2021/12/26 13:38:52;;;;;;;9.87;4.67;;;;;;;;;;5011496;28;20185;-85
2021/12/26 13:41:22;;;;;;;10.63;4.67;;;;;;;;;;5010108;28;20183;-85
2021/12/26 13:43:48;;;;;;;7.60;4.43;;;;;;;;;;5009821;28;20283;-85
2021/12/26 13:46:19;;;;;;;8.67;4.50;;;;;;;;;;5014293;28;20257;-84
2021/12/26 13:48:47;;;;;;;7.73;4.57;;;;;;;;;;5027404;28;20629;-85
2021/12/26 13:51:19;;;;;;;10.07;4.57;;;;;;;;;;5005900;28;20182;-85
2021/12/26 13:53:46;;;;;;;9.83;4.17;;;;;;;;;;5027983;28;20186;-85
2021/12/26 13:56:11;;;;;;;9.87;4.57;;;;;;;;;;5011081;28;20210;-86
2021/12/26 13:58:39;;;;;;;10.17;4.97;;;;;;;;;;5013640;28;20205;-86
2021/12/26 14:01:06;;;;;;;6.90;4.23;;;;;;;;;;5011538;28;20218;-86
2021/12/26 14:03:32;;;;;;;10.90;4.87;;;;;;;;;;5001604;28;20313;-86
2021/12/26 14:05:57;;;;;;;9.10;4.93;;;;;;;;;;5013568;28;20218;-86
2021/12/26 14:08:27;;;;;;;11.63;4.63;;;;;;;;;;5013910;28;20183;-85
2021/12/26 14:11:07;;;;;;;10.23;4.60;;;;;;;;;;5004510;28;20688;-87
2021/12/26 14:13:56;;;;;;;9.33;5.00;;;;;;;;;;5008607;28;20650;-85
2021/12/26 14:16:30;;;;;;;8.23;5.00;;;;;;;;;;5003861;28;20197;-86
2021/12/26 14:19:05;;;;;;;9.17;4.80;;;;;;;;;;5011738;28;20210;-85
2021/12/26 14:21:30;;;;;;;7.90;4.43;;;;;;;;;;5007501;28;20213;-85
2021/12/26 14:23:56;;;;;;;11.10;6.17;;;;;;;;;;5010286;28;20232;-86
2021/12/26 14:26:30;;;;;;;10.57;5.13;;;;;;;;;;5011845;28;20183;-85
2021/12/26 14:29:01;;;;;;;8.90;5.07;;;;;;;;;;5014385;28;20298;-85
2021/12/26 14:31:46;;;;;;;10.03;5.37;;;;;;;;;;5000435;28;20664;-85
2021/12/26 14:34:21;;;;;;;8.67;5.37;;;;;;;;;;5011145;28;20195;-85
2021/12/26 14:36:54;;;;;;;8.90;6.03;;;;;;;;;;5009304;28;20226;-85
2021/12/26 14:39:35;;;;;;;11.23;5.50;;;;;;;;;;5010478;28;20217;-85
2021/12/26 14:42:09;;;;;;;9.13;4.90;;;;;;;;;;5006361;28;20218;-85
2021/12/26 14:44:44;;;;;;;9.90;5.03;;;;;;;;;;5012082;28;20235;-85
2021/12/26 14:47:14;;;;;;;8.70;4.93;;;;;;;;;;5004230;28;20649;-85
2021/12/26 14:49:52;;;;;;;10.77;5.53;;;;;;;;;;5008284;28;20191;-85
2021/12/26 14:52:20;;;;;;;8.60;4.83;;;;;;;;;;5000510;28;20206;-85
2021/12/26 14:54:47;;;;;;;13.43;6.10;;;;;;;;;;5008389;28;20245;-85